Terminal Aerodrome Forecast
Issued by NWS Grand Forks, ND

Home | Current Version | Previous Version | Graphics & Text | Print | Product List | Glossary On
Versions: 1 2 3 4 5 6 7 8 9 10 11 12 13 14 15
000
FTUS43 KFGF 232300
TAFFAR
TAF
KFAR 232334Z 2400/2424 15005KT P6SM BKN150
     FM240400 10008KT P6SM OVC070
     FM241000 12015KT P6SM VCSH OVC040
     FM241500 13016G22KT P6SM -RA OVC030=

USA.gov is the U.S. government's official web portal to all federal, state and local government web resources and services.